sensor_id;sensor_type;location;lat;lon;timestamp;P1;durP1;ratioP1;P2;durP2;ratioP2
9276;SDS011;4676;42.678;23.244;2022-11-15T00:01:26;64.67;;;26.97;;
9276;SDS011;4676;42.678;23.244;2022-11-15T00:03:52;58.27;;;25.83;;
9276;SDS011;4676;42.678;23.244;2022-11-15T00:06:19;67.40;;;25.80;;
9276;SDS011;4676;42.678;23.244;2022-11-15T00:08:45;55.10;;;24.93;;
9276;SDS011;4676;42.678;23.244;2022-11-15T00:11:12;53.43;;;26.60;;
9276;SDS011;4676;42.678;23.244;2022-11-15T00:13:38;61.93;;;23.77;;
9276;SDS011;4676;42.678;23.244;2022-11-15T00:16:05;59.47;;;24.63;;
9276;SDS011;4676;42.678;23.244;2022-11-15T00:18:33;57.53;;;25.03;;
9276;SDS011;4676;42.678;23.244;2022-11-15T00:21:03;47.93;;;22.70;;
9276;SDS011;4676;42.678;23.244;2022-11-15T00:23:29;53.83;;;24.03;;
9276;SDS011;4676;42.678;23.244;2022-11-15T00:25:56;52.93;;;24.43;;
9276;SDS011;4676;42.678;23.244;2022-11-15T00:28:23;55.80;;;24.50;;
9276;SDS011;4676;42.678;23.244;2022-11-15T00:30:50;58.97;;;23.73;;
9276;SDS011;4676;42.678;23.244;2022-11-15T00:33:16;51.23;;;24.60;;
9276;SDS011;4676;42.678;23.244;2022-11-15T00:35:44;53.53;;;25.47;;
9276;SDS011;4676;42.678;23.244;2022-11-15T00:38:11;53.53;;;24.97;;
9276;SDS011;4676;42.678;23.244;2022-11-15T00:40:37;47.67;;;22.77;;
9276;SDS011;4676;42.678;23.244;2022-11-15T00:43:04;48.87;;;24.77;;
9276;SDS011;4676;42.678;23.244;2022-11-15T00:45:31;48.10;;;23.73;;
9276;SDS011;4676;42.678;23.244;2022-11-15T00:47:57;53.10;;;24.50;;
9276;SDS011;4676;42.678;23.244;2022-11-15T00:50:24;53.27;;;24.50;;
9276;SDS011;4676;42.678;23.244;2022-11-15T00:52:52;51.60;;;24.30;;
9276;SDS011;4676;42.678;23.244;2022-11-15T00:55:18;50.43;;;24.37;;
9276;SDS011;4676;42.678;23.244;2022-11-15T00:57:46;50.20;;;23.77;;
9276;SDS011;4676;42.678;23.244;2022-11-15T01:00:13;51.37;;;23.57;;
9276;SDS011;4676;42.678;23.244;2022-11-15T01:02:39;48.87;;;23.90;;
9276;SDS011;4676;42.678;23.244;2022-11-15T01:05:06;48.13;;;21.87;;
9276;SDS011;4676;42.678;23.244;2022-11-15T01:07:33;54.13;;;22.97;;
9276;SDS011;4676;42.678;23.244;2022-11-15T01:10:01;47.07;;;21.37;;
9276;SDS011;4676;42.678;23.244;2022-11-15T01:12:28;47.43;;;20.93;;
9276;SDS011;4676;42.678;23.244;2022-11-15T01:14:54;58.57;;;23.60;;
9276;SDS011;4676;42.678;23.244;2022-11-15T01:17:21;50.43;;;23.10;;
9276;SDS011;4676;42.678;23.244;2022-11-15T01:19:47;45.33;;;21.27;;
9276;SDS011;4676;42.678;23.244;2022-11-15T01:22:14;47.40;;;22.47;;
9276;SDS011;4676;42.678;23.244;2022-11-15T01:24:41;54.37;;;23.57;;
9276;SDS011;4676;42.678;23.244;2022-11-15T01:27:09;37.00;;;19.50;;
9276;SDS011;4676;42.678;23.244;2022-11-15T01:29:36;41.87;;;20.80;;
9276;SDS011;4676;42.678;23.244;2022-11-15T01:32:02;48.87;;;22.90;;
9276;SDS011;4676;42.678;23.244;2022-11-15T01:34:29;55.47;;;22.97;;
9276;SDS011;4676;42.678;23.244;2022-11-15T01:36:55;49.63;;;22.73;;
9276;SDS011;4676;42.678;23.244;2022-11-15T01:39:22;44.47;;;22.50;;
9276;SDS011;4676;42.678;23.244;2022-11-15T01:41:49;45.10;;;21.97;;
9276;SDS011;4676;42.678;23.244;2022-11-15T01:47:03;49.90;;;21.37;;
9276;SDS011;4676;42.678;23.244;2022-11-15T01:49:31;43.37;;;21.90;;
9276;SDS011;4676;42.678;23.244;2022-11-15T01:51:58;48.50;;;22.77;;
9276;SDS011;4676;42.678;23.244;2022-11-15T01:54:26;55.27;;;20.43;;
9276;SDS011;4676;42.678;23.244;2022-11-15T01:56:54;48.60;;;20.87;;
9276;SDS011;4676;42.678;23.244;2022-11-15T01:59:22;51.33;;;21.20;;
9276;SDS011;4676;42.678;23.244;2022-11-15T02:01:49;57.57;;;22.50;;
9276;SDS011;4676;42.678;23.244;2022-11-15T02:04:18;45.93;;;20.93;;
9276;SDS011;4676;42.678;23.244;2022-11-15T02:06:46;46.40;;;20.70;;
9276;SDS011;4676;42.678;23.244;2022-11-15T02:09:15;44.70;;;20.03;;
9276;SDS011;4676;42.678;23.244;2022-11-15T02:11:42;39.03;;;19.37;;
9276;SDS011;4676;42.678;23.244;2022-11-15T02:14:10;44.70;;;20.50;;
9276;SDS011;4676;42.678;23.244;2022-11-15T02:16:39;42.13;;;19.13;;
9276;SDS011;4676;42.678;23.244;2022-11-15T02:19:13;39.43;;;17.50;;
9276;SDS011;4676;42.678;23.244;2022-11-15T02:21:49;44.47;;;19.97;;
9276;SDS011;4676;42.678;23.244;2022-11-15T02:29:59;39.73;;;18.97;;
9276;SDS011;4676;42.678;23.244;2022-11-15T02:32:29;41.87;;;19.47;;
9276;SDS011;4676;42.678;23.244;2022-11-15T02:35:01;38.43;;;18.37;;
9276;SDS011;4676;42.678;23.244;2022-11-15T02:37:31;39.10;;;18.37;;
9276;SDS011;4676;42.678;23.244;2022-11-15T02:40:02;34.13;;;18.00;;
9276;SDS011;4676;42.678;23.244;2022-11-15T02:42:39;40.07;;;18.23;;
9276;SDS011;4676;42.678;23.244;2022-11-15T02:45:25;41.73;;;19.13;;
9276;SDS011;4676;42.678;23.244;2022-11-15T02:47:55;35.47;;;18.37;;
9276;SDS011;4676;42.678;23.244;2022-11-15T02:50:24;38.17;;;18.80;;
9276;SDS011;4676;42.678;23.244;2022-11-15T02:52:51;46.00;;;19.27;;
9276;SDS011;4676;42.678;23.244;2022-11-15T02:55:28;37.37;;;19.17;;
9276;SDS011;4676;42.678;23.244;2022-11-15T02:57:58;37.43;;;18.60;;
9276;SDS011;4676;42.678;23.244;2022-11-15T03:00:29;39.40;;;19.00;;
9276;SDS011;4676;42.678;23.244;2022-11-15T03:05:44;48.70;;;18.70;;
9276;SDS011;4676;42.678;23.244;2022-11-15T03:08:14;43.77;;;17.97;;
9276;SDS011;4676;42.678;23.244;2022-11-15T03:10:42;46.83;;;17.73;;
9276;SDS011;4676;42.678;23.244;2022-11-15T03:13:14;44.87;;;19.97;;
9276;SDS011;4676;42.678;23.244;2022-11-15T03:15:44;42.13;;;20.00;;
9276;SDS011;4676;42.678;23.244;2022-11-15T03:18:14;43.37;;;19.20;;
9276;SDS011;4676;42.678;23.244;2022-11-15T03:20:44;49.57;;;18.60;;
9276;SDS011;4676;42.678;23.244;2022-11-15T03:23:12;37.17;;;17.40;;
9276;SDS011;4676;42.678;23.244;2022-11-15T03:25:40;43.53;;;18.83;;
9276;SDS011;4676;42.678;23.244;2022-11-15T03:28:08;49.90;;;20.67;;
9276;SDS011;4676;42.678;23.244;2022-11-15T03:30:36;36.83;;;18.87;;
9276;SDS011;4676;42.678;23.244;2022-11-15T03:33:04;42.00;;;18.97;;
9276;SDS011;4676;42.678;23.244;2022-11-15T03:35:32;34.07;;;17.83;;
9276;SDS011;4676;42.678;23.244;2022-11-15T03:38:03;37.17;;;18.40;;
9276;SDS011;4676;42.678;23.244;2022-11-15T03:40:33;45.57;;;19.10;;
9276;SDS011;4676;42.678;23.244;2022-11-15T03:43:00;33.83;;;17.30;;
9276;SDS011;4676;42.678;23.244;2022-11-15T03:45:31;33.77;;;16.97;;
9276;SDS011;4676;42.678;23.244;2022-11-15T03:47:59;33.27;;;17.90;;
9276;SDS011;4676;42.678;23.244;2022-11-15T03:50:26;44.93;;;18.97;;
9276;SDS011;4676;42.678;23.244;2022-11-15T03:52:53;39.67;;;16.80;;
9276;SDS011;4676;42.678;23.244;2022-11-15T03:55:22;34.03;;;18.90;;
9276;SDS011;4676;42.678;23.244;2022-11-15T03:57:50;39.10;;;17.63;;
9276;SDS011;4676;42.678;23.244;2022-11-15T04:00:17;41.73;;;18.97;;
9276;SDS011;4676;42.678;23.244;2022-11-15T04:02:43;45.97;;;19.63;;
9276;SDS011;4676;42.678;23.244;2022-11-15T04:05:10;57.60;;;20.37;;
9276;SDS011;4676;42.678;23.244;2022-11-15T04:07:37;59.73;;;21.03;;
9276;SDS011;4676;42.678;23.244;2022-11-15T04:10:04;55.50;;;19.30;;
9276;SDS011;4676;42.678;23.244;2022-11-15T04:12:33;51.83;;;20.73;;
9276;SDS011;4676;42.678;23.244;2022-11-15T04:15:00;51.77;;;19.70;;
9276;SDS011;4676;42.678;23.244;2022-11-15T04:17:37;63.57;;;22.50;;
9276;SDS011;4676;42.678;23.244;2022-11-15T04:20:04;60.50;;;21.03;;
9276;SDS011;4676;42.678;23.244;2022-11-15T04:22:48;63.57;;;24.20;;
9276;SDS011;4676;42.678;23.244;2022-11-15T04:25:32;60.07;;;23.77;;
9276;SDS011;4676;42.678;23.244;2022-11-15T04:28:00;62.73;;;23.90;;
9276;SDS011;4676;42.678;23.244;2022-11-15T04:30:26;56.17;;;21.70;;
9276;SDS011;4676;42.678;23.244;2022-11-15T04:32:53;49.03;;;21.80;;
9276;SDS011;4676;42.678;23.244;2022-11-15T04:35:20;50.57;;;22.13;;
9276;SDS011;4676;42.678;23.244;2022-11-15T04:37:46;61.47;;;23.97;;
9276;SDS011;4676;42.678;23.244;2022-11-15T04:40:12;67.97;;;22.67;;
9276;SDS011;4676;42.678;23.244;2022-11-15T04:42:40;53.97;;;22.57;;
9276;SDS011;4676;42.678;23.244;2022-11-15T04:45:08;58.03;;;22.67;;
9276;SDS011;4676;42.678;23.244;2022-11-15T04:47:35;43.73;;;21.80;;
9276;SDS011;4676;42.678;23.244;2022-11-15T04:50:02;54.00;;;23.97;;
9276;SDS011;4676;42.678;23.244;2022-11-15T04:52:29;57.70;;;20.97;;
9276;SDS011;4676;42.678;23.244;2022-11-15T04:54:55;53.83;;;21.67;;
9276;SDS011;4676;42.678;23.244;2022-11-15T04:57:22;58.10;;;24.30;;
9276;SDS011;4676;42.678;23.244;2022-11-15T04:59:49;72.47;;;25.23;;
9276;SDS011;4676;42.678;23.244;2022-11-15T05:02:16;62.60;;;24.53;;
9276;SDS011;4676;42.678;23.244;2022-11-15T05:04:43;66.17;;;24.83;;
9276;SDS011;4676;42.678;23.244;2022-11-15T05:07:08;52.27;;;23.60;;
9276;SDS011;4676;42.678;23.244;2022-11-15T05:09:35;59.67;;;25.83;;
9276;SDS011;4676;42.678;23.244;2022-11-15T05:12:01;57.17;;;25.73;;
9276;SDS011;4676;42.678;23.244;2022-11-15T05:14:28;57.23;;;25.43;;
9276;SDS011;4676;42.678;23.244;2022-11-15T05:16:55;55.83;;;24.63;;
9276;SDS011;4676;42.678;23.244;2022-11-15T05:19:23;64.03;;;25.97;;
9276;SDS011;4676;42.678;23.244;2022-11-15T05:21:49;64.20;;;26.30;;
9276;SDS011;4676;42.678;23.244;2022-11-15T05:24:16;74.33;;;28.10;;
9276;SDS011;4676;42.678;23.244;2022-11-15T05:26:42;75.80;;;27.40;;
9276;SDS011;4676;42.678;23.244;2022-11-15T05:29:09;70.60;;;27.13;;
9276;SDS011;4676;42.678;23.244;2022-11-15T05:31:37;65.40;;;24.83;;
9276;SDS011;4676;42.678;23.244;2022-11-15T05:34:06;80.10;;;28.77;;
9276;SDS011;4676;42.678;23.244;2022-11-15T05:36:35;96.93;;;28.60;;
9276;SDS011;4676;42.678;23.244;2022-11-15T05:39:03;71.33;;;24.23;;
9276;SDS011;4676;42.678;23.244;2022-11-15T05:41:30;59.87;;;23.80;;
9276;SDS011;4676;42.678;23.244;2022-11-15T05:43:58;60.30;;;22.60;;
9276;SDS011;4676;42.678;23.244;2022-11-15T05:46:26;54.40;;;21.23;;
9276;SDS011;4676;42.678;23.244;2022-11-15T05:48:52;47.80;;;20.23;;
9276;SDS011;4676;42.678;23.244;2022-11-15T05:51:19;60.53;;;22.73;;
9276;SDS011;4676;42.678;23.244;2022-11-15T05:53:48;52.03;;;20.80;;
9276;SDS011;4676;42.678;23.244;2022-11-15T05:56:15;54.73;;;21.47;;
9276;SDS011;4676;42.678;23.244;2022-11-15T05:58:42;69.60;;;23.23;;
9276;SDS011;4676;42.678;23.244;2022-11-15T06:01:09;56.57;;;22.23;;
9276;SDS011;4676;42.678;23.244;2022-11-15T06:03:35;60.73;;;23.07;;
9276;SDS011;4676;42.678;23.244;2022-11-15T06:06:02;62.07;;;23.20;;
9276;SDS011;4676;42.678;23.244;2022-11-15T06:08:28;63.67;;;23.20;;
9276;SDS011;4676;42.678;23.244;2022-11-15T06:10:56;54.17;;;22.03;;
9276;SDS011;4676;42.678;23.244;2022-11-15T06:13:23;62.77;;;23.10;;
9276;SDS011;4676;42.678;23.244;2022-11-15T06:15:49;57.77;;;21.60;;
9276;SDS011;4676;42.678;23.244;2022-11-15T06:18:16;55.83;;;21.77;;
9276;SDS011;4676;42.678;23.244;2022-11-15T06:20:42;50.10;;;18.90;;
9276;SDS011;4676;42.678;23.244;2022-11-15T06:23:09;46.23;;;17.50;;
9276;SDS011;4676;42.678;23.244;2022-11-15T06:25:35;54.27;;;18.17;;
9276;SDS011;4676;42.678;23.244;2022-11-15T06:28:03;54.53;;;16.40;;
9276;SDS011;4676;42.678;23.244;2022-11-15T06:30:30;44.53;;;16.87;;
9276;SDS011;4676;42.678;23.244;2022-11-15T06:32:59;40.50;;;15.73;;
9276;SDS011;4676;42.678;23.244;2022-11-15T06:35:27;42.00;;;15.90;;
9276;SDS011;4676;42.678;23.244;2022-11-15T06:37:53;37.33;;;15.87;;
9276;SDS011;4676;42.678;23.244;2022-11-15T06:40:20;50.50;;;17.00;;
9276;SDS011;4676;42.678;23.244;2022-11-15T06:42:46;41.53;;;17.77;;
9276;SDS011;4676;42.678;23.244;2022-11-15T06:45:14;47.53;;;18.37;;
9276;SDS011;4676;42.678;23.244;2022-11-15T06:47:44;45.57;;;17.57;;
9276;SDS011;4676;42.678;23.244;2022-11-15T06:50:10;60.43;;;19.93;;
9276;SDS011;4676;42.678;23.244;2022-11-15T06:52:37;45.63;;;18.27;;
9276;SDS011;4676;42.678;23.244;2022-11-15T06:55:04;46.13;;;19.20;;
9276;SDS011;4676;42.678;23.244;2022-11-15T06:57:30;48.60;;;19.17;;
9276;SDS011;4676;42.678;23.244;2022-11-15T06:59:57;45.00;;;18.03;;
9276;SDS011;4676;42.678;23.244;2022-11-15T07:02:25;43.60;;;19.90;;
9276;SDS011;4676;42.678;23.244;2022-11-15T07:04:51;53.47;;;20.40;;
9276;SDS011;4676;42.678;23.244;2022-11-15T07:07:18;58.77;;;21.17;;
9276;SDS011;4676;42.678;23.244;2022-11-15T07:09:44;51.00;;;21.20;;
9276;SDS011;4676;42.678;23.244;2022-11-15T07:12:11;64.60;;;23.03;;
9276;SDS011;4676;42.678;23.244;2022-11-15T07:14:37;72.13;;;24.93;;
9276;SDS011;4676;42.678;23.244;2022-11-15T07:17:04;65.33;;;24.67;;
9276;SDS011;4676;42.678;23.244;2022-11-15T07:19:32;59.47;;;24.07;;
9276;SDS011;4676;42.678;23.244;2022-11-15T07:21:58;76.97;;;23.30;;
9276;SDS011;4676;42.678;23.244;2022-11-15T07:24:25;69.97;;;24.10;;
9276;SDS011;4676;42.678;23.244;2022-11-15T07:26:51;75.83;;;25.47;;
9276;SDS011;4676;42.678;23.244;2022-11-15T07:29:18;92.93;;;28.03;;
9276;SDS011;4676;42.678;23.244;2022-11-15T07:31:45;79.57;;;29.47;;
9276;SDS011;4676;42.678;23.244;2022-11-15T07:34:11;89.30;;;29.23;;
9276;SDS011;4676;42.678;23.244;2022-11-15T07:36:40;95.07;;;28.17;;
9276;SDS011;4676;42.678;23.244;2022-11-15T07:39:07;78.03;;;26.27;;
9276;SDS011;4676;42.678;23.244;2022-11-15T07:41:33;89.13;;;29.40;;
9276;SDS011;4676;42.678;23.244;2022-11-15T07:44:00;81.23;;;28.47;;
9276;SDS011;4676;42.678;23.244;2022-11-15T07:46:27;86.20;;;26.70;;
9276;SDS011;4676;42.678;23.244;2022-11-15T07:48:54;89.67;;;28.67;;
9276;SDS011;4676;42.678;23.244;2022-11-15T07:51:21;80.80;;;27.83;;
9276;SDS011;4676;42.678;23.244;2022-11-15T07:53:49;83.40;;;28.00;;
9276;SDS011;4676;42.678;23.244;2022-11-15T07:56:15;87.20;;;29.10;;
9276;SDS011;4676;42.678;23.244;2022-11-15T07:58:42;91.47;;;29.27;;
9276;SDS011;4676;42.678;23.244;2022-11-15T08:01:11;96.07;;;29.90;;
9276;SDS011;4676;42.678;23.244;2022-11-15T08:03:38;77.47;;;28.80;;
9276;SDS011;4676;42.678;23.244;2022-11-15T08:06:05;70.97;;;28.13;;
9276;SDS011;4676;42.678;23.244;2022-11-15T08:08:32;91.37;;;30.63;;
9276;SDS011;4676;42.678;23.244;2022-11-15T08:11:00;103.03;;;31.73;;
9276;SDS011;4676;42.678;23.244;2022-11-15T08:13:26;100.27;;;31.20;;
9276;SDS011;4676;42.678;23.244;2022-11-15T08:15:57;102.93;;;31.07;;
9276;SDS011;4676;42.678;23.244;2022-11-15T08:18:24;82.20;;;30.20;;
9276;SDS011;4676;42.678;23.244;2022-11-15T08:20:50;68.57;;;25.57;;
9276;SDS011;4676;42.678;23.244;2022-11-15T08:23:17;78.63;;;26.03;;
9276;SDS011;4676;42.678;23.244;2022-11-15T08:25:44;65.83;;;25.53;;
9276;SDS011;4676;42.678;23.244;2022-11-15T08:28:12;82.30;;;26.40;;
9276;SDS011;4676;42.678;23.244;2022-11-15T08:30:39;79.33;;;26.27;;
9276;SDS011;4676;42.678;23.244;2022-11-15T08:33:10;74.13;;;27.43;;
9276;SDS011;4676;42.678;23.244;2022-11-15T08:35:38;94.67;;;30.80;;
9276;SDS011;4676;42.678;23.244;2022-11-15T08:38:06;93.03;;;31.20;;
9276;SDS011;4676;42.678;23.244;2022-11-15T08:40:32;82.53;;;30.67;;
9276;SDS011;4676;42.678;23.244;2022-11-15T08:42:59;93.17;;;30.43;;
9276;SDS011;4676;42.678;23.244;2022-11-15T08:45:29;112.27;;;33.23;;
9276;SDS011;4676;42.678;23.244;2022-11-15T08:47:56;115.13;;;35.33;;
9276;SDS011;4676;42.678;23.244;2022-11-15T08:50:23;101.50;;;32.80;;
9276;SDS011;4676;42.678;23.244;2022-11-15T08:52:50;103.27;;;33.30;;
9276;SDS011;4676;42.678;23.244;2022-11-15T08:55:17;93.23;;;30.53;;
9276;SDS011;4676;42.678;23.244;2022-11-15T08:57:44;98.77;;;31.63;;
9276;SDS011;4676;42.678;23.244;2022-11-15T09:00:12;98.27;;;32.13;;
9276;SDS011;4676;42.678;23.244;2022-11-15T09:02:41;107.00;;;31.93;;
9276;SDS011;4676;42.678;23.244;2022-11-15T09:05:08;105.27;;;33.00;;
9276;SDS011;4676;42.678;23.244;2022-11-15T09:07:35;129.97;;;35.23;;
9276;SDS011;4676;42.678;23.244;2022-11-15T09:10:02;117.27;;;36.10;;
9276;SDS011;4676;42.678;23.244;2022-11-15T09:12:28;128.13;;;35.83;;
9276;SDS011;4676;42.678;23.244;2022-11-15T09:14:55;107.60;;;35.73;;
9276;SDS011;4676;42.678;23.244;2022-11-15T09:17:23;111.80;;;36.03;;
9276;SDS011;4676;42.678;23.244;2022-11-15T09:19:51;140.97;;;37.23;;
9276;SDS011;4676;42.678;23.244;2022-11-15T09:22:18;122.40;;;36.13;;
9276;SDS011;4676;42.678;23.244;2022-11-15T09:24:45;112.50;;;36.40;;
9276;SDS011;4676;42.678;23.244;2022-11-15T09:27:11;123.57;;;36.47;;
9276;SDS011;4676;42.678;23.244;2022-11-15T09:29:38;126.00;;;37.43;;
9276;SDS011;4676;42.678;23.244;2022-11-15T09:32:05;126.93;;;38.17;;
9276;SDS011;4676;42.678;23.244;2022-11-15T09:34:32;130.60;;;39.03;;
9276;SDS011;4676;42.678;23.244;2022-11-15T09:37:00;113.47;;;37.77;;
9276;SDS011;4676;42.678;23.244;2022-11-15T09:39:27;126.60;;;38.10;;
9276;SDS011;4676;42.678;23.244;2022-11-15T09:45:01;124.63;;;38.67;;
9276;SDS011;4676;42.678;23.244;2022-11-15T09:47:41;120.93;;;35.17;;
9276;SDS011;4676;42.678;23.244;2022-11-15T09:50:25;115.33;;;37.00;;
9276;SDS011;4676;42.678;23.244;2022-11-15T09:53:00;116.60;;;38.40;;
9276;SDS011;4676;42.678;23.244;2022-11-15T09:55:31;124.20;;;35.57;;
9276;SDS011;4676;42.678;23.244;2022-11-15T09:58:21;128.23;;;38.30;;
9276;SDS011;4676;42.678;23.244;2022-11-15T10:00:53;109.37;;;36.77;;
9276;SDS011;4676;42.678;23.244;2022-11-15T10:03:23;117.77;;;39.03;;
9276;SDS011;4676;42.678;23.244;2022-11-15T10:05:55;115.23;;;38.40;;
9276;SDS011;4676;42.678;23.244;2022-11-15T10:08:30;134.80;;;40.47;;
9276;SDS011;4676;42.678;23.244;2022-11-15T10:11:05;120.30;;;39.97;;
9276;SDS011;4676;42.678;23.244;2022-11-15T10:13:34;116.97;;;39.03;;
9276;SDS011;4676;42.678;23.244;2022-11-15T10:16:04;134.50;;;41.70;;
9276;SDS011;4676;42.678;23.244;2022-11-15T10:18:42;131.53;;;42.17;;
9276;SDS011;4676;42.678;23.244;2022-11-15T10:21:17;123.50;;;40.27;;
9276;SDS011;4676;42.678;23.244;2022-11-15T10:23:47;118.77;;;40.40;;
9276;SDS011;4676;42.678;23.244;2022-11-15T10:26:14;110.13;;;41.00;;
9276;SDS011;4676;42.678;23.244;2022-11-15T10:28:43;130.47;;;41.00;;
9276;SDS011;4676;42.678;23.244;2022-11-15T10:31:20;121.60;;;41.47;;
9276;SDS011;4676;42.678;23.244;2022-11-15T10:33:50;117.93;;;40.33;;
9276;SDS011;4676;42.678;23.244;2022-11-15T10:36:19;109.67;;;39.97;;
9276;SDS011;4676;42.678;23.244;2022-11-15T10:38:57;106.13;;;40.20;;
9276;SDS011;4676;42.678;23.244;2022-11-15T10:44:19;107.77;;;38.60;;
9276;SDS011;4676;42.678;23.244;2022-11-15T10:46:56;110.47;;;38.87;;
9276;SDS011;4676;42.678;23.244;2022-11-15T10:49:32;104.13;;;37.13;;
9276;SDS011;4676;42.678;23.244;2022-11-15T10:52:00;107.13;;;38.87;;
9276;SDS011;4676;42.678;23.244;2022-11-15T10:54:33;102.23;;;36.33;;
9276;SDS011;4676;42.678;23.244;2022-11-15T10:57:04;86.60;;;34.93;;
9276;SDS011;4676;42.678;23.244;2022-11-15T10:59:35;83.33;;;34.67;;
9276;SDS011;4676;42.678;23.244;2022-11-15T11:04:56;88.40;;;35.87;;
9276;SDS011;4676;42.678;23.244;2022-11-15T11:07:24;75.87;;;32.63;;
9276;SDS011;4676;42.678;23.244;2022-11-15T11:10:02;77.30;;;33.40;;
9276;SDS011;4676;42.678;23.244;2022-11-15T11:12:31;79.23;;;34.40;;
9276;SDS011;4676;42.678;23.244;2022-11-15T11:15:00;73.67;;;31.93;;
9276;SDS011;4676;42.678;23.244;2022-11-15T11:17:43;77.17;;;31.70;;
9276;SDS011;4676;42.678;23.244;2022-11-15T11:20:20;77.77;;;32.10;;
9276;SDS011;4676;42.678;23.244;2022-11-15T11:22:56;78.63;;;33.00;;
9276;SDS011;4676;42.678;23.244;2022-11-15T11:25:33;81.87;;;33.47;;
9276;SDS011;4676;42.678;23.244;2022-11-15T11:28:13;83.93;;;32.13;;
9276;SDS011;4676;42.678;23.244;2022-11-15T11:30:55;80.70;;;32.70;;
9276;SDS011;4676;42.678;23.244;2022-11-15T11:33:31;80.87;;;32.77;;
9276;SDS011;4676;42.678;23.244;2022-11-15T11:36:03;86.17;;;34.00;;
9276;SDS011;4676;42.678;23.244;2022-11-15T11:38:48;84.40;;;33.60;;
9276;SDS011;4676;42.678;23.244;2022-11-15T11:41:27;86.77;;;34.67;;
9276;SDS011;4676;42.678;23.244;2022-11-15T11:44:07;77.40;;;32.27;;
9276;SDS011;4676;42.678;23.244;2022-11-15T11:46:48;75.90;;;29.80;;
9276;SDS011;4676;42.678;23.244;2022-11-15T11:49:21;79.17;;;32.47;;
9276;SDS011;4676;42.678;23.244;2022-11-15T11:51:55;77.40;;;31.63;;
9276;SDS011;4676;42.678;23.244;2022-11-15T11:54:30;73.47;;;30.23;;
9276;SDS011;4676;42.678;23.244;2022-11-15T11:57:04;83.40;;;32.10;;
9276;SDS011;4676;42.678;23.244;2022-11-15T11:59:37;82.97;;;32.20;;
9276;SDS011;4676;42.678;23.244;2022-11-15T12:02:11;80.80;;;33.40;;
9276;SDS011;4676;42.678;23.244;2022-11-15T12:04:44;95.67;;;33.60;;
9276;SDS011;4676;42.678;23.244;2022-11-15T12:07:15;91.17;;;34.73;;
9276;SDS011;4676;42.678;23.244;2022-11-15T12:09:48;75.00;;;32.73;;
9276;SDS011;4676;42.678;23.244;2022-11-15T12:12:25;86.30;;;36.63;;
9276;SDS011;4676;42.678;23.244;2022-11-15T12:15:00;86.23;;;35.87;;
9276;SDS011;4676;42.678;23.244;2022-11-15T12:17:29;85.87;;;33.30;;
9276;SDS011;4676;42.678;23.244;2022-11-15T12:19:57;81.57;;;32.90;;
9276;SDS011;4676;42.678;23.244;2022-11-15T12:22:28;87.37;;;34.37;;
9276;SDS011;4676;42.678;23.244;2022-11-15T12:25:03;92.37;;;39.03;;
9276;SDS011;4676;42.678;23.244;2022-11-15T12:27:37;97.70;;;36.50;;
9276;SDS011;4676;42.678;23.244;2022-11-15T12:30:15;85.83;;;36.40;;
9276;SDS011;4676;42.678;23.244;2022-11-15T12:32:54;85.60;;;33.97;;
9276;SDS011;4676;42.678;23.244;2022-11-15T12:35:25;88.80;;;35.10;;
9276;SDS011;4676;42.678;23.244;2022-11-15T12:37:56;109.60;;;40.63;;
9276;SDS011;4676;42.678;23.244;2022-11-15T12:40:33;125.43;;;45.70;;
9276;SDS011;4676;42.678;23.244;2022-11-15T12:46:03;95.60;;;38.07;;
9276;SDS011;4676;42.678;23.244;2022-11-15T12:54:51;110.47;;;44.30;;
9276;SDS011;4676;42.678;23.244;2022-11-15T13:00:36;87.63;;;36.33;;
9276;SDS011;4676;42.678;23.244;2022-11-15T13:06:37;89.53;;;37.33;;
9276;SDS011;4676;42.678;23.244;2022-11-15T13:12:06;98.53;;;39.63;;
9276;SDS011;4676;42.678;23.244;2022-11-15T13:14:37;104.07;;;40.43;;
9276;SDS011;4676;42.678;23.244;2022-11-15T13:17:16;101.70;;;43.53;;
9276;SDS011;4676;42.678;23.244;2022-11-15T13:20:16;95.17;;;37.77;;
9276;SDS011;4676;42.678;23.244;2022-11-15T13:22:46;110.70;;;46.80;;
9276;SDS011;4676;42.678;23.244;2022-11-15T13:25:18;96.57;;;39.93;;
9276;SDS011;4676;42.678;23.244;2022-11-15T13:27:54;94.33;;;38.00;;
9276;SDS011;4676;42.678;23.244;2022-11-15T13:30:22;91.47;;;37.07;;
9276;SDS011;4676;42.678;23.244;2022-11-15T13:32:52;85.37;;;37.77;;
9276;SDS011;4676;42.678;23.244;2022-11-15T13:35:24;92.40;;;35.97;;
9276;SDS011;4676;42.678;23.244;2022-11-15T13:37:54;93.17;;;36.33;;
9276;SDS011;4676;42.678;23.244;2022-11-15T13:40:24;89.93;;;36.03;;
9276;SDS011;4676;42.678;23.244;2022-11-15T13:42:55;129.63;;;50.47;;
9276;SDS011;4676;42.678;23.244;2022-11-15T13:45:22;138.57;;;59.23;;
9276;SDS011;4676;42.678;23.244;2022-11-15T13:47:52;123.70;;;46.57;;
9276;SDS011;4676;42.678;23.244;2022-11-15T13:50:21;132.40;;;53.70;;
9276;SDS011;4676;42.678;23.244;2022-11-15T13:52:52;110.90;;;42.73;;
9276;SDS011;4676;42.678;23.244;2022-11-15T13:55:20;103.00;;;46.40;;
9276;SDS011;4676;42.678;23.244;2022-11-15T13:57:49;112.83;;;44.97;;
9276;SDS011;4676;42.678;23.244;2022-11-15T14:00:27;97.77;;;37.93;;
9276;SDS011;4676;42.678;23.244;2022-11-15T14:03:03;99.80;;;38.57;;
9276;SDS011;4676;42.678;23.244;2022-11-15T14:05:34;95.20;;;39.37;;
9276;SDS011;4676;42.678;23.244;2022-11-15T14:08:11;84.67;;;37.20;;
9276;SDS011;4676;42.678;23.244;2022-11-15T14:10:48;83.13;;;33.77;;
9276;SDS011;4676;42.678;23.244;2022-11-15T14:13:26;86.33;;;35.40;;
9276;SDS011;4676;42.678;23.244;2022-11-15T14:15:54;96.60;;;38.27;;
9276;SDS011;4676;42.678;23.244;2022-11-15T14:18:39;83.43;;;34.37;;
9276;SDS011;4676;42.678;23.244;2022-11-15T14:21:10;87.90;;;36.90;;
9276;SDS011;4676;42.678;23.244;2022-11-15T14:23:36;76.23;;;32.90;;
9276;SDS011;4676;42.678;23.244;2022-11-15T14:26:03;91.30;;;34.00;;
9276;SDS011;4676;42.678;23.244;2022-11-15T14:28:31;83.63;;;32.93;;
9276;SDS011;4676;42.678;23.244;2022-11-15T14:31:04;75.87;;;30.50;;
9276;SDS011;4676;42.678;23.244;2022-11-15T14:33:37;78.63;;;31.13;;
9276;SDS011;4676;42.678;23.244;2022-11-15T14:36:04;72.53;;;31.67;;
9276;SDS011;4676;42.678;23.244;2022-11-15T14:38:34;72.80;;;30.47;;
9276;SDS011;4676;42.678;23.244;2022-11-15T14:41:01;81.20;;;31.33;;
9276;SDS011;4676;42.678;23.244;2022-11-15T14:43:27;78.47;;;32.70;;
9276;SDS011;4676;42.678;23.244;2022-11-15T14:45:54;72.33;;;32.43;;
9276;SDS011;4676;42.678;23.244;2022-11-15T14:48:21;85.47;;;33.93;;
9276;SDS011;4676;42.678;23.244;2022-11-15T14:50:48;74.63;;;32.97;;
9276;SDS011;4676;42.678;23.244;2022-11-15T14:53:15;80.00;;;33.77;;
9276;SDS011;4676;42.678;23.244;2022-11-15T14:55:46;88.40;;;32.77;;
9276;SDS011;4676;42.678;23.244;2022-11-15T14:58:13;74.77;;;32.17;;
9276;SDS011;4676;42.678;23.244;2022-11-15T15:00:40;66.27;;;30.57;;
9276;SDS011;4676;42.678;23.244;2022-11-15T15:03:07;65.53;;;31.30;;
9276;SDS011;4676;42.678;23.244;2022-11-15T15:05:35;74.80;;;30.73;;
9276;SDS011;4676;42.678;23.244;2022-11-15T15:08:04;84.57;;;34.73;;
9276;SDS011;4676;42.678;23.244;2022-11-15T15:10:32;83.83;;;35.77;;
9276;SDS011;4676;42.678;23.244;2022-11-15T15:13:03;90.90;;;33.63;;
9276;SDS011;4676;42.678;23.244;2022-11-15T15:15:31;88.13;;;33.20;;
9276;SDS011;4676;42.678;23.244;2022-11-15T15:18:00;80.07;;;32.00;;
9276;SDS011;4676;42.678;23.244;2022-11-15T15:20:26;79.53;;;32.97;;
9276;SDS011;4676;42.678;23.244;2022-11-15T15:22:54;96.47;;;33.77;;
9276;SDS011;4676;42.678;23.244;2022-11-15T15:25:26;89.10;;;33.83;;